Time;durP1;ratioP1;P1;durP2;ratioP2;P2;SDS_P1;SDS_P2;PMS_P1;PMS_P2;Temp;Humidity;BMP_temperature;BMP_pressure;BME280_temperature;BME280_humidity;BME280_pressure;Samples;Min_cycle;Max_cycle;Signal;HPM_P1;HPM_P2
2021/07/18 00:01:06;;;;;;;11.65;8.02;;;24.40;64.50;;;;;;5054298;28;20498;-71
2021/07/18 00:03:32;;;;;;;8.55;6.65;;;24.40;64.30;;;;;;5053257;28;20021;-71
2021/07/18 00:05:58;;;;;;;10.52;6.68;;;24.40;64.30;;;;;;5054430;28;20028;-72
2021/07/18 00:08:24;;;;;;;10.88;7.13;;;24.40;65.00;;;;;;5054112;28;20029;-71
2021/07/18 00:10:51;;;;;;;14.23;10.30;;;24.50;64.10;;;;;;5054322;28;20087;-71
2021/07/18 00:13:19;;;;;;;12.60;8.65;;;24.50;64.30;;;;;;5054323;28;20014;-71
2021/07/18 00:15:45;;;;;;;11.75;7.85;;;24.50;64.20;;;;;;5053285;28;20359;-71
2021/07/18 00:18:12;;;;;;;8.85;6.60;;;24.50;64.20;;;;;;5054472;28;20100;-71
2021/07/18 00:20:37;;;;;;;10.60;7.75;;;24.50;63.90;;;;;;5056707;28;20031;-71
2021/07/18 00:23:04;;;;;;;7.85;6.70;;;24.50;64.00;;;;;;5054111;28;20021;-72
2021/07/18 00:25:32;;;;;;;9.75;6.93;;;24.50;63.90;;;;;;5053988;28;20044;-71
2021/07/18 00:28:01;;;;;;;9.60;7.15;;;24.60;63.90;;;;;;5054018;28;20498;-71
2021/07/18 00:30:27;;;;;;;10.02;6.93;;;24.50;64.00;;;;;;5053785;28;20104;-71
2021/07/18 00:32:53;;;;;;;25.45;8.15;;;24.50;64.00;;;;;;5053789;28;20024;-71
2021/07/18 00:35:19;;;;;;;9.13;6.80;;;24.50;63.70;;;;;;5071412;28;20025;-71
2021/07/18 00:37:45;;;;;;;10.98;6.88;;;24.60;63.90;;;;;;5054296;28;20387;-71
2021/07/18 00:40:11;;;;;;;6.85;5.60;;;24.50;63.60;;;;;;5053747;28;20026;-71
2021/07/18 00:42:37;;;;;;;9.27;6.05;;;24.60;63.50;;;;;;5053515;28;20040;-71
2021/07/18 00:45:05;;;;;;;7.47;6.13;;;24.60;63.50;;;;;;5054033;28;20108;-72
2021/07/18 00:47:31;;;;;;;12.32;6.38;;;24.60;63.40;;;;;;5055436;28;20079;-71
2021/07/18 00:49:57;;;;;;;20.70;6.85;;;24.60;63.50;;;;;;5062957;28;20052;-71
2021/07/18 00:52:23;;;;;;;8.05;5.63;;;24.60;63.30;;;;;;5067660;28;20391;-71
2021/07/18 00:54:49;;;;;;;6.20;5.57;;;24.50;63.10;;;;;;5064373;28;20035;-71
2021/07/18 00:57:15;;;;;;;11.77;5.97;;;24.50;63.10;;;;;;5060463;28;20024;-72
2021/07/18 00:59:41;;;;;;;9.02;5.97;;;24.40;63.10;;;;;;5064400;28;20390;-72
2021/07/18 01:02:06;;;;;;;7.28;5.85;;;24.40;63.10;;;;;;5061604;28;20064;-72
2021/07/18 01:04:32;;;;;;;10.15;5.38;;;24.30;63.10;;;;;;5072661;28;20500;-71
2021/07/18 01:06:58;;;;;;;11.23;5.93;;;24.30;63.20;;;;;;5072847;28;20012;-72
2021/07/18 01:09:24;;;;;;;8.68;4.80;;;24.20;63.10;;;;;;5072554;28;20111;-72
2021/07/18 01:11:50;;;;;;;5.85;5.25;;;24.20;63.10;;;;;;5072837;28;20056;-71
2021/07/18 01:14:16;;;;;;;9.27;6.18;;;24.10;63.30;;;;;;5072840;28;20423;-72
2021/07/18 01:16:42;;;;;;;7.60;5.78;;;24.00;63.30;;;;;;5072802;28;20123;-72
2021/07/18 01:19:09;;;;;;;12.93;7.05;;;24.00;63.40;;;;;;5072088;28;20052;-71
2021/07/18 01:21:38;;;;;;;12.63;6.97;;;24.00;64.80;;;;;;5072661;28;20025;-71
2021/07/18 01:24:05;;;;;;;8.05;6.07;;;23.90;64.10;;;;;;5072755;28;20414;-72
2021/07/18 01:26:32;;;;;;;7.43;5.28;;;23.80;64.00;;;;;;5072732;28;20095;-72
2021/07/18 01:28:58;;;;;;;7.32;5.68;;;23.80;64.10;;;;;;5071744;28;20016;-71
2021/07/18 01:31:24;;;;;;;6.05;4.65;;;23.70;64.20;;;;;;5072702;28;20090;-71
2021/07/18 01:33:50;;;;;;;7.63;5.47;;;23.70;64.30;;;;;;5072701;28;20028;-70
2021/07/18 01:36:16;;;;;;;8.15;5.50;;;23.70;64.60;;;;;;5053668;28;20493;-71
2021/07/18 01:38:41;;;;;;;6.85;5.15;;;23.70;64.80;;;;;;5065638;28;20032;-71
2021/07/18 01:41:07;;;;;;;7.65;5.53;;;23.70;65.10;;;;;;5072595;28;20029;-71
2021/07/18 01:43:33;;;;;;;9.77;4.97;;;23.70;65.20;;;;;;5071484;28;20115;-71
2021/07/18 01:45:59;;;;;;;8.10;5.47;;;23.70;65.30;;;;;;5072538;28;20024;-72
2021/07/18 01:48:25;;;;;;;8.02;6.30;;;23.80;65.50;;;;;;5072406;28;20024;-73
2021/07/18 01:50:51;;;;;;;6.93;5.78;;;23.80;65.70;;;;;;5072288;28;20048;-71
2021/07/18 01:53:16;;;;;;;11.70;6.07;;;23.80;65.60;;;;;;5072356;28;20028;-71
2021/07/18 01:55:42;;;;;;;6.50;5.40;;;23.80;65.30;;;;;;5063226;28;20025;-71
2021/07/18 01:58:08;;;;;;;15.35;7.07;;;23.90;65.50;;;;;;5051518;28;20132;-71
2021/07/18 02:00:34;;;;;;;11.05;6.20;;;23.90;65.60;;;;;;5050861;28;20071;-71
2021/07/18 02:03:00;;;;;;;7.57;5.47;;;23.90;65.40;;;;;;5052928;28;20033;-71
2021/07/18 02:05:26;;;;;;;11.23;6.20;;;23.90;66.20;;;;;;5051193;28;20453;-71
2021/07/18 02:07:52;;;;;;;10.75;5.82;;;23.90;65.60;;;;;;5052338;28;20025;-71
2021/07/18 02:10:19;;;;;;;8.13;5.22;;;24.00;65.50;;;;;;5050946;28;20017;-73
2021/07/18 02:12:49;;;;;;;6.28;4.95;;;24.00;65.20;;;;;;5050925;28;20028;-72
2021/07/18 02:15:18;;;;;;;6.25;4.68;;;24.00;65.30;;;;;;5052133;28;20043;-71
2021/07/18 02:17:44;;;;;;;9.50;5.45;;;24.00;65.30;;;;;;5052129;28;20031;-71
2021/07/18 02:20:12;;;;;;;15.15;5.35;;;24.10;65.30;;;;;;5055593;28;20060;-71
2021/07/18 02:22:41;;;;;;;8.32;5.45;;;24.10;65.20;;;;;;5050749;28;20236;-71
2021/07/18 02:25:07;;;;;;;6.47;5.57;;;24.10;65.30;;;;;;5052103;28;20028;-71
2021/07/18 02:27:33;;;;;;;8.80;5.60;;;24.10;65.30;;;;;;5056886;28;20071;-71
2021/07/18 02:29:59;;;;;;;8.63;6.68;;;24.10;65.20;;;;;;5061192;28;20029;-71
2021/07/18 02:32:24;;;;;;;12.18;7.05;;;24.10;65.70;;;;;;5054677;28;20029;-71
2021/07/18 02:34:50;;;;;;;9.68;6.10;;;24.10;66.00;;;;;;5055925;28;20382;-71
2021/07/18 02:37:16;;;;;;;7.30;5.15;;;24.10;66.10;;;;;;5055865;28;20033;-71
2021/07/18 02:39:42;;;;;;;7.85;6.20;;;24.10;66.00;;;;;;5055867;28;20024;-72
2021/07/18 02:42:08;;;;;;;10.40;6.28;;;24.00;66.20;;;;;;5055779;28;20100;-72
2021/07/18 02:44:34;;;;;;;10.73;6.30;;;24.00;66.20;;;;;;5055973;28;20108;-71
2021/07/18 02:47:00;;;;;;;6.85;5.55;;;24.00;66.20;;;;;;5055879;28;20100;-71
2021/07/18 02:49:25;;;;;;;8.60;6.18;;;23.90;66.30;;;;;;5055679;28;20112;-71
2021/07/18 02:51:51;;;;;;;6.95;5.15;;;23.90;66.50;;;;;;5071912;28;20045;-72
2021/07/18 02:54:17;;;;;;;8.13;5.95;;;23.90;66.40;;;;;;5075670;28;20020;-72
2021/07/18 02:56:42;;;;;;;9.50;5.43;;;23.80;66.40;;;;;;5075657;28;20382;-72
2021/07/18 02:59:08;;;;;;;9.93;5.82;;;23.70;66.50;;;;;;5072838;28;20037;-72
2021/07/18 03:01:34;;;;;;;9.68;5.85;;;23.70;66.70;;;;;;5055461;28;20025;-71
2021/07/18 03:04:00;;;;;;;6.63;5.03;;;23.60;66.60;;;;;;5055533;28;20043;-72
2021/07/18 03:06:25;;;;;;;8.13;5.00;;;23.60;67.50;;;;;;5055417;28;20104;-72
2021/07/18 03:08:51;;;;;;;6.07;5.40;;;23.50;66.80;;;;;;5055414;28;20021;-71
2021/07/18 03:11:17;;;;;;;6.65;4.80;;;23.50;66.90;;;;;;5055432;28;20025;-71
2021/07/18 03:13:43;;;;;;;7.63;4.80;;;23.60;67.20;;;;;;5055321;28;20360;-71
2021/07/18 03:16:08;;;;;;;17.75;6.45;;;23.50;67.20;;;;;;5055331;28;20078;-72
2021/07/18 03:18:34;;;;;;;6.40;4.95;;;23.50;67.40;;;;;;5058085;28;20029;-72
2021/07/18 03:21:00;;;;;;;8.57;5.50;;;23.50;67.30;;;;;;5075165;28;20031;-72
2021/07/18 03:23:26;;;;;;;8.40;4.85;;;23.50;67.40;;;;;;5075104;28;20016;-72
2021/07/18 03:25:51;;;;;;;9.93;4.93;;;23.50;67.60;;;;;;5075141;28;20091;-72
2021/07/18 03:28:17;;;;;;;7.15;6.15;;;23.50;67.80;;;;;;5075150;28;20113;-72
2021/07/18 03:30:43;;;;;;;6.95;5.45;;;23.50;68.10;;;;;;5055402;28;20033;-72
2021/07/18 03:33:09;;;;;;;9.25;5.18;;;23.50;68.10;;;;;;5054981;28;20505;-72
2021/07/18 03:35:34;;;;;;;6.85;5.35;;;23.50;68.10;;;;;;5054970;28;20095;-72
2021/07/18 03:38:00;;;;;;;9.60;5.53;;;23.40;69.00;;;;;;5054996;28;20108;-72
2021/07/18 03:40:28;;;;;;;14.57;5.38;;;23.40;68.20;;;;;;5053510;28;20025;-72
2021/07/18 03:42:55;;;;;;;9.35;5.30;;;23.40;68.40;;;;;;5054185;28;20029;-72
2021/07/18 03:45:21;;;;;;;8.13;4.57;;;23.40;68.50;;;;;;5054774;28;20017;-72
2021/07/18 03:47:46;;;;;;;10.35;5.00;;;23.40;69.30;;;;;;5053530;28;20035;-72
2021/07/18 03:50:14;;;;;;;7.18;5.43;;;23.40;69.00;;;;;;5054496;28;20346;-72
2021/07/18 03:52:39;;;;;;;5.05;4.13;;;23.30;69.30;;;;;;5054680;28;20100;-72
2021/07/18 03:55:07;;;;;;;4.95;4.30;;;23.30;69.40;;;;;;5054587;28;20112;-72
2021/07/18 03:57:33;;;;;;;5.93;4.82;;;23.30;69.50;;;;;;5053306;28;20025;-72
2021/07/18 03:59:59;;;;;;;7.30;4.65;;;23.20;69.70;;;;;;5059532;28;20031;-72
2021/07/18 04:02:25;;;;;;;5.75;4.03;;;23.20;69.70;;;;;;5074416;28;20021;-72
2021/07/18 04:04:50;;;;;;;7.28;4.25;;;23.20;69.80;;;;;;5074453;28;20478;-72
2021/07/18 04:07:17;;;;;;;5.20;4.18;;;23.20;69.80;;;;;;5073228;28;20078;-71
2021/07/18 04:09:43;;;;;;;4.13;3.72;;;23.20;70.10;;;;;;5074308;28;20048;-72
2021/07/18 04:12:09;;;;;;;7.35;3.42;;;23.20;70.10;;;;;;5058605;28;20060;-71
2021/07/18 04:14:35;;;;;;;9.23;5.45;;;23.20;70.10;;;;;;5053114;28;20100;-71
2021/07/18 04:17:00;;;;;;;12.15;6.13;;;23.20;70.40;;;;;;5054332;28;20025;-72
2021/07/18 04:19:26;;;;;;;9.50;6.10;;;23.20;70.30;;;;;;5054033;28;20028;-72
2021/07/18 04:21:52;;;;;;;8.00;6.05;;;23.20;70.20;;;;;;5057928;28;20033;-71
2021/07/18 04:24:17;;;;;;;9.65;6.43;;;23.20;70.30;;;;;;5054363;28;20017;-71
2021/07/18 04:26:43;;;;;;;8.85;6.57;;;23.10;70.10;;;;;;5054063;28;20032;-71
2021/07/18 04:29:09;;;;;;;8.13;5.65;;;23.10;70.20;;;;;;5053852;28;20057;-72
2021/07/18 04:31:34;;;;;;;7.25;5.50;;;23.10;70.30;;;;;;5053827;28;20112;-72
2021/07/18 04:34:00;;;;;;;8.65;5.13;;;23.20;70.30;;;;;;5056385;28;20112;-72
2021/07/18 04:36:26;;;;;;;5.45;4.43;;;23.20;70.30;;;;;;5052646;28;20461;-72
2021/07/18 04:38:52;;;;;;;5.82;4.25;;;23.20;70.20;;;;;;5052527;28;20033;-74
2021/07/18 04:41:17;;;;;;;8.23;4.00;;;23.20;70.40;;;;;;5053722;28;20082;-71
2021/07/18 04:43:43;;;;;;;7.07;5.15;;;23.20;70.40;;;;;;5053823;28;20056;-71
2021/07/18 04:46:09;;;;;;;7.78;5.18;;;23.30;70.40;;;;;;5053830;28;20036;-72
2021/07/18 04:48:35;;;;;;;9.98;5.53;;;23.30;70.30;;;;;;5053577;28;20017;-72
2021/07/18 04:51:00;;;;;;;9.80;5.78;;;23.30;71.10;;;;;;5053129;28;20410;-72
2021/07/18 04:53:26;;;;;;;7.07;4.65;;;23.30;70.60;;;;;;5051582;28;20047;-71
2021/07/18 04:55:52;;;;;;;6.68;5.40;;;23.20;70.50;;;;;;5053320;28;20428;-72
2021/07/18 04:58:18;;;;;;;5.90;5.10;;;23.20;70.40;;;;;;5051799;28;20025;-72
2021/07/18 05:00:44;;;;;;;8.63;5.50;;;23.20;70.60;;;;;;5053138;28;20036;-72
2021/07/18 05:03:09;;;;;;;9.60;5.97;;;23.20;70.60;;;;;;5053469;28;20029;-72
2021/07/18 05:05:37;;;;;;;6.78;5.68;;;23.20;70.70;;;;;;5052028;28;20502;-72
2021/07/18 05:08:03;;;;;;;8.13;5.93;;;23.10;70.90;;;;;;5053247;28;20051;-73
2021/07/18 05:10:29;;;;;;;9.18;6.70;;;23.10;71.10;;;;;;5053314;28;20009;-75
2021/07/18 05:12:57;;;;;;;10.98;5.78;;;23.10;71.60;;;;;;5052088;28;20075;-76
2021/07/18 05:15:25;;;;;;;9.25;5.57;;;23.00;71.60;;;;;;5053279;28;20016;-74
2021/07/18 05:17:51;;;;;;;8.93;6.20;;;23.00;71.60;;;;;;5053259;28;20544;-75
2021/07/18 05:20:22;;;;;;;15.73;6.72;;;23.00;71.90;;;;;;5052894;28;20067;-75
2021/07/18 05:22:49;;;;;;;10.48;6.65;;;23.00;72.30;;;;;;5053152;28;20501;-77
2021/07/18 05:25:14;;;;;;;10.00;7.20;;;23.00;72.70;;;;;;5053395;28;20028;-79
2021/07/18 05:27:41;;;;;;;12.15;6.93;;;23.00;73.00;;;;;;5053466;28;20025;-77
2021/07/18 05:30:11;;;;;;;9.30;5.70;;;23.00;73.40;;;;;;5053045;28;20501;-79
2021/07/18 05:32:37;;;;;;;9.48;6.22;;;23.00;73.40;;;;;;5053419;28;20098;-79
2021/07/18 05:35:05;;;;;;;12.10;7.78;;;22.90;73.30;;;;;;5065578;28;20036;-79
2021/07/18 05:37:30;;;;;;;9.02;6.47;;;22.90;73.30;;;;;;5072893;28;20170;-77
2021/07/18 05:39:56;;;;;;;6.55;5.68;;;22.90;73.30;;;;;;5071638;28;20493;-77
2021/07/18 05:42:22;;;;;;;9.40;6.65;;;22.90;73.50;;;;;;5072740;28;20047;-76
2021/07/18 05:44:48;;;;;;;11.38;7.55;;;22.90;73.90;;;;;;5072819;28;20024;-76
2021/07/18 05:47:13;;;;;;;9.45;6.30;;;22.90;73.80;;;;;;5072377;28;20162;-76
2021/07/18 05:49:39;;;;;;;7.35;5.63;;;22.90;73.70;;;;;;5071455;28;20032;-76
2021/07/18 05:52:06;;;;;;;8.40;5.55;;;22.90;73.60;;;;;;5072562;28;20046;-75
2021/07/18 05:54:32;;;;;;;8.32;5.82;;;22.90;73.70;;;;;;5072620;28;20031;-77
2021/07/18 05:57:32;;;;;;;13.32;5.95;;;22.90;73.80;;;;;;5072656;28;20424;-74
2021/07/18 05:59:58;;;;;;;14.07;9.02;;;22.90;74.00;;;;;;5072997;28;20039;-76
2021/07/18 06:02:23;;;;;;;10.15;6.60;;;22.90;75.70;;;;;;5073333;28;20031;-74
2021/07/18 06:04:49;;;;;;;12.90;6.10;;;22.80;75.90;;;;;;5073776;28;20021;-73
2021/07/18 06:07:15;;;;;;;11.93;6.32;;;22.80;76.20;;;;;;5079433;28;20031;-73
2021/07/18 06:09:41;;;;;;;6.90;4.88;;;22.80;76.40;;;;;;5078149;28;20070;-73
2021/07/18 06:12:07;;;;;;;7.57;4.32;;;22.80;76.70;;;;;;5079345;28;20055;-73
2021/07/18 06:14:33;;;;;;;8.70;3.97;;;22.80;77.00;;;;;;5079158;28;20059;-73
2021/07/18 06:16:58;;;;;;;7.85;5.07;;;22.80;77.20;;;;;;5070038;28;20048;-75
2021/07/18 06:19:24;;;;;;;10.00;6.03;;;22.80;77.20;;;;;;5059136;28;20033;-73
2021/07/18 06:21:50;;;;;;;8.70;5.30;;;22.70;76.80;;;;;;5062122;28;20033;-72
2021/07/18 06:24:16;;;;;;;13.13;5.25;;;22.60;76.90;;;;;;5058509;28;20052;-73
2021/07/18 06:26:41;;;;;;;16.30;7.18;;;22.60;77.10;;;;;;5058993;28;20044;-73
2021/07/18 06:29:07;;;;;;;37.30;6.53;;;22.50;76.90;;;;;;5057069;28;20091;-75
2021/07/18 06:31:33;;;;;;;9.63;5.68;;;22.40;77.90;;;;;;5058825;28;20083;-74
2021/07/18 06:33:59;;;;;;;9.52;5.05;;;22.20;78.60;;;;;;5061220;28;20036;-74
2021/07/18 06:36:25;;;;;;;8.15;4.38;;;22.10;78.40;;;;;;5078904;28;20025;-74
2021/07/18 06:38:50;;;;;;;8.05;4.60;;;22.10;78.80;;;;;;5078827;28;20029;-74
2021/07/18 06:41:16;;;;;;;8.27;4.38;;;22.00;79.30;;;;;;5078811;28;20037;-72
2021/07/18 06:43:42;;;;;;;14.85;4.82;;;22.00;79.50;;;;;;5078870;28;20017;-76
2021/07/18 06:46:07;;;;;;;6.95;4.22;;;21.80;80.40;;;;;;5077533;28;20071;-74
2021/07/18 06:48:33;;;;;;;4.90;3.58;;;21.80;81.10;;;;;;5077500;28;20024;-76
2021/07/18 06:50:59;;;;;;;9.20;4.65;;;21.80;82.10;;;;;;5078608;28;20099;-76
2021/07/18 06:53:25;;;;;;;10.25;4.80;;;21.80;82.40;;;;;;5077478;28;20111;-75
2021/07/18 06:55:51;;;;;;;8.45;4.95;;;21.80;82.60;;;;;;5078797;28;20097;-77
2021/07/18 06:58:17;;;;;;;7.03;4.47;;;21.80;82.30;;;;;;5078820;28;20059;-77
2021/07/18 07:00:43;;;;;;;7.65;4.43;;;21.80;82.40;;;;;;5061568;28;20117;-77
2021/07/18 07:03:08;;;;;;;7.00;4.75;;;21.80;82.50;;;;;;5057199;28;20025;-77
2021/07/18 07:05:36;;;;;;;6.25;3.90;;;21.80;82.20;;;;;;5058691;28;20025;-76
2021/07/18 07:08:02;;;;;;;5.28;3.60;;;21.70;81.80;;;;;;5058842;28;20021;-78
2021/07/18 07:10:28;;;;;;;5.68;3.70;;;21.70;82.30;;;;;;5058258;28;20048;-76
2021/07/18 07:12:53;;;;;;;5.32;3.80;;;21.80;82.80;;;;;;5058616;28;20502;-77
2021/07/18 07:15:19;;;;;;;8.23;4.40;;;21.80;83.10;;;;;;5057369;28;20110;-79
2021/07/18 07:17:46;;;;;;;6.43;3.92;;;21.80;83.00;;;;;;5055433;28;20029;-77
2021/07/18 07:20:12;;;;;;;7.15;4.28;;;21.80;83.30;;;;;;5055382;28;20037;-77
2021/07/18 07:22:39;;;;;;;13.23;5.43;;;21.80;83.00;;;;;;5054137;28;20029;-75
2021/07/18 07:25:14;;;;;;;5.68;4.70;;;21.80;83.00;;;;;;5055347;28;20020;-76
2021/07/18 07:27:41;;;;;;;8.10;4.95;;;21.90;83.10;;;;;;5072610;28;20347;-77
2021/07/18 07:30:08;;;;;;;9.40;5.30;;;21.90;83.30;;;;;;5074416;28;20025;-75
2021/07/18 07:32:34;;;;;;;6.32;4.70;;;22.00;83.40;;;;;;5075161;28;20021;-77
2021/07/18 07:35:01;;;;;;;8.10;5.25;;;22.00;82.90;;;;;;5061520;28;20059;-76
2021/07/18 07:37:28;;;;;;;6.70;4.55;;;22.00;83.00;;;;;;5055047;28;20056;-78
2021/07/18 07:39:55;;;;;;;8.52;5.63;;;22.00;82.70;;;;;;5053764;28;20021;-76
2021/07/18 07:42:21;;;;;;;6.63;4.43;;;22.00;82.30;;;;;;5053294;28;20091;-77
2021/07/18 07:44:48;;;;;;;6.93;4.32;;;22.10;82.80;;;;;;5053710;28;20021;-78
2021/07/18 07:47:15;;;;;;;4.95;4.03;;;22.10;82.80;;;;;;5053478;28;20080;-76
2021/07/18 07:49:43;;;;;;;6.97;4.80;;;22.20;82.50;;;;;;5054884;28;20033;-76
2021/07/18 07:52:10;;;;;;;6.78;4.13;;;22.20;82.60;;;;;;5054556;28;20521;-76
2021/07/18 07:54:36;;;;;;;6.07;4.25;;;22.20;82.10;;;;;;5054778;28;20060;-77
2021/07/18 07:57:03;;;;;;;8.15;4.72;;;22.20;82.60;;;;;;5053348;28;20459;-75
2021/07/18 07:59:28;;;;;;;5.22;3.50;;;22.20;82.10;;;;;;5053358;28;20091;-74
2021/07/18 08:01:54;;;;;;;6.10;4.10;;;22.20;82.20;;;;;;5054191;28;20112;-77
2021/07/18 08:04:20;;;;;;;4.80;4.00;;;22.20;82.10;;;;;;5053298;28;20108;-76
2021/07/18 08:06:46;;;;;;;5.68;3.90;;;22.20;81.90;;;;;;5054541;28;20025;-74
2021/07/18 08:09:11;;;;;;;4.20;3.60;;;22.20;81.50;;;;;;5054422;28;20466;-75
2021/07/18 08:11:37;;;;;;;5.30;4.28;;;22.10;81.90;;;;;;5053202;28;20033;-75
2021/07/18 08:14:03;;;;;;;5.50;3.72;;;22.10;82.00;;;;;;5054405;28;20444;-77
2021/07/18 08:16:29;;;;;;;4.50;3.83;;;22.20;82.30;;;;;;5053998;28;20029;-76
2021/07/18 08:18:55;;;;;;;4.93;3.63;;;22.20;82.80;;;;;;5054240;28;20400;-76
2021/07/18 08:21:21;;;;;;;6.88;3.92;;;22.30;83.10;;;;;;5053599;28;20139;-75
2021/07/18 08:23:49;;;;;;;3.78;3.38;;;22.30;82.70;;;;;;5073626;28;20025;-76
2021/07/18 08:26:20;;;;;;;7.20;3.72;;;22.40;83.20;;;;;;5072681;28;20029;-77
2021/07/18 08:28:46;;;;;;;5.00;3.70;;;22.40;82.70;;;;;;5073385;28;20355;-75
2021/07/18 08:31:12;;;;;;;5.70;4.20;;;22.40;82.80;;;;;;5054348;28;20028;-75
2021/07/18 08:33:38;;;;;;;7.30;4.07;;;22.50;83.10;;;;;;5054831;28;20025;-76
2021/07/18 08:36:04;;;;;;;5.35;3.75;;;22.50;83.00;;;;;;5072676;28;20425;-74
2021/07/18 08:38:30;;;;;;;3.55;3.10;;;22.50;83.00;;;;;;5073843;28;20487;-77
2021/07/18 08:40:57;;;;;;;3.58;3.20;;;22.60;83.50;;;;;;5073076;28;20120;-76
2021/07/18 08:43:24;;;;;;;3.75;3.10;;;22.60;83.30;;;;;;5072349;28;20048;-76
2021/07/18 08:45:50;;;;;;;4.68;3.72;;;22.70;83.40;;;;;;5072304;28;20121;-75
2021/07/18 08:48:16;;;;;;;5.22;3.42;;;22.70;83.30;;;;;;5072301;28;20021;-76
2021/07/18 08:50:43;;;;;;;4.97;3.50;;;22.70;83.30;;;;;;5073479;28;20447;-79
2021/07/18 08:53:09;;;;;;;5.20;3.30;;;22.70;83.10;;;;;;5073646;28;20047;-76
2021/07/18 08:55:38;;;;;;;5.57;3.95;;;22.80;83.00;;;;;;5073599;28;20150;-76
2021/07/18 08:58:03;;;;;;;5.93;3.85;;;22.70;82.60;;;;;;5068076;28;20371;-75
2021/07/18 09:00:29;;;;;;;6.65;3.97;;;22.70;82.40;;;;;;5053305;28;20047;-75
2021/07/18 09:02:55;;;;;;;4.25;3.28;;;22.80;82.00;;;;;;5053435;28;20029;-76
2021/07/18 09:05:21;;;;;;;5.88;4.10;;;22.70;83.00;;;;;;5053412;28;20024;-76
2021/07/18 09:07:55;;;;;;;4.13;3.33;;;22.70;82.20;;;;;;5065104;28;20027;-75
2021/07/18 09:10:22;;;;;;;3.70;2.97;;;22.80;82.20;;;;;;5073294;28;20025;-76
2021/07/18 09:13:08;;;;;;;4.07;3.63;;;22.80;82.90;;;;;;5064462;28;20029;-76
2021/07/18 09:15:52;;;;;;;5.68;3.35;;;22.80;81.40;;;;;;5061218;28;20024;-75
2021/07/18 09:18:23;;;;;;;7.35;4.10;;;22.80;81.10;;;;;;5062199;28;20025;-76
2021/07/18 09:20:54;;;;;;;9.70;4.53;;;22.90;81.50;;;;;;5051540;28;20036;-74
2021/07/18 09:23:28;;;;;;;7.40;4.05;;;22.90;82.00;;;;;;5051502;28;20020;-75
2021/07/18 09:26:16;;;;;;;5.90;4.05;;;22.80;80.70;;;;;;5066332;28;20031;-75
2021/07/18 09:28:43;;;;;;;6.28;3.78;;;22.80;79.90;;;;;;5071122;28;20466;-77
2021/07/18 09:31:33;;;;;;;5.28;3.28;;;22.70;79.90;;;;;;5072531;28;20031;-74
2021/07/18 09:34:09;;;;;;;4.60;3.35;;;22.70;80.00;;;;;;5072596;28;20029;-75
2021/07/18 09:36:35;;;;;;;3.80;3.10;;;22.80;81.10;;;;;;5072522;28;20017;-74
2021/07/18 09:39:11;;;;;;;5.10;3.38;;;22.80;82.50;;;;;;5071598;28;20029;-76
2021/07/18 09:41:39;;;;;;;4.47;3.60;;;22.90;82.10;;;;;;5068808;28;20367;-76
2021/07/18 09:44:05;;;;;;;6.05;3.67;;;23.00;82.70;;;;;;5071954;28;20612;-78
2021/07/18 09:46:32;;;;;;;5.47;3.78;;;23.00;82.60;;;;;;5072744;28;20466;-77
2021/07/18 09:49:00;;;;;;;3.95;3.13;;;23.00;82.20;;;;;;5064788;28;20017;-77
2021/07/18 09:51:26;;;;;;;4.35;3.20;;;23.10;82.60;;;;;;5071019;28;20047;-76
2021/07/18 09:54:12;;;;;;;4.88;3.05;;;23.10;82.30;;;;;;5072365;28;20017;-74
2021/07/18 09:56:39;;;;;;;3.67;2.72;;;23.20;81.00;;;;;;5065807;28;20170;-75
2021/07/18 09:59:05;;;;;;;5.82;3.60;;;23.20;82.60;;;;;;5066564;28;20061;-75
2021/07/18 10:01:35;;;;;;;5.00;2.65;;;23.30;82.60;;;;;;5087949;28;20020;-74
2021/07/18 10:04:02;;;;;;;4.63;2.85;;;23.30;82.20;;;;;;5084745;28;20024;-74
2021/07/18 10:06:29;;;;;;;3.80;2.53;;;23.40;82.60;;;;;;5072300;28;20041;-75
2021/07/18 10:09:02;;;;;;;5.47;2.78;;;23.40;82.60;;;;;;5070815;28;20103;-75
2021/07/18 10:11:30;;;;;;;3.38;2.60;;;23.50;81.80;;;;;;5072083;28;20075;-74
2021/07/18 10:13:58;;;;;;;3.50;2.17;;;23.50;81.80;;;;;;5070802;28;20053;-75
2021/07/18 10:16:25;;;;;;;2.88;2.38;;;23.40;81.40;;;;;;5072220;28;20043;-73
2021/07/18 10:18:56;;;;;;;3.60;2.72;;;23.50;81.10;;;;;;5072148;28;20029;-74
2021/07/18 10:21:27;;;;;;;3.67;2.50;;;23.40;81.10;;;;;;5065274;28;20521;-76
2021/07/18 10:23:55;;;;;;;3.22;2.40;;;23.50;81.20;;;;;;5063270;28;20044;-75
2021/07/18 10:26:26;;;;;;;3.60;2.65;;;23.40;82.50;;;;;;5061054;28;20027;-75
2021/07/18 10:28:53;;;;;;;3.63;2.42;;;23.50;81.80;;;;;;5091072;28;20028;-76
2021/07/18 10:31:37;;;;;;;3.67;2.75;;;23.50;81.90;;;;;;5091888;28;20167;-78
2021/07/18 10:34:06;;;;;;;5.78;2.83;;;23.50;81.20;;;;;;5092279;28;20032;-76
2021/07/18 10:36:32;;;;;;;6.30;2.90;;;23.50;81.60;;;;;;5085279;28;20028;-75
2021/07/18 10:38:58;;;;;;;3.72;2.90;;;23.60;81.20;;;;;;5072136;28;20023;-75
2021/07/18 10:41:44;;;;;;;6.00;2.70;;;23.60;81.20;;;;;;5091984;28;20028;-75
2021/07/18 10:44:15;;;;;;;4.63;3.03;;;23.60;80.10;;;;;;5092163;28;20024;-76
2021/07/18 10:46:41;;;;;;;4.53;3.30;;;23.60;80.20;;;;;;5091959;28;20016;-75
2021/07/18 10:49:13;;;;;;;4.60;3.72;;;23.60;80.50;;;;;;5091933;28;20513;-75
2021/07/18 10:51:40;;;;;;;5.70;3.25;;;23.60;80.30;;;;;;5092348;28;20040;-73
2021/07/18 10:54:19;;;;;;;4.63;3.55;;;23.60;81.30;;;;;;5094662;28;20024;-76
2021/07/18 10:56:47;;;;;;;6.20;3.97;;;23.60;80.60;;;;;;5074056;28;20093;-76
2021/07/18 10:59:32;;;;;;;6.28;4.70;;;23.70;81.30;;;;;;5075822;28;20115;-76
2021/07/18 11:02:09;;;;;;;6.03;4.10;;;23.60;80.20;;;;;;5068425;28;20067;-75
2021/07/18 11:04:40;;;;;;;5.53;4.30;;;23.70;80.90;;;;;;5064890;28;20115;-75
2021/07/18 11:07:21;;;;;;;8.30;4.78;;;23.70;81.30;;;;;;5069774;28;20024;-76
2021/07/18 11:09:50;;;;;;;5.32;4.82;;;23.80;80.80;;;;;;5075606;28;20067;-76
2021/07/18 11:12:35;;;;;;;5.70;4.72;;;23.90;81.80;;;;;;5074504;28;20485;-75
2021/07/18 11:15:12;;;;;;;6.28;4.85;;;23.90;81.20;;;;;;5075765;28;20482;-75
2021/07/18 11:17:54;;;;;;;6.72;5.05;;;24.00;81.50;;;;;;5075651;28;20031;-75
2021/07/18 11:20:44;;;;;;;9.88;5.40;;;24.10;81.50;;;;;;5072295;28;20021;-75
2021/07/18 11:23:20;;;;;;;5.70;4.30;;;24.30;81.70;;;;;;5055624;28;20032;-75
2021/07/18 11:25:52;;;;;;;8.77;5.97;;;24.40;82.00;;;;;;5054108;28;20104;-76
2021/07/18 11:28:35;;;;;;;5.97;4.75;;;24.50;82.00;;;;;;5054288;28;20544;-75
2021/07/18 11:31:10;;;;;;;6.80;5.90;;;24.70;81.60;;;;;;5055483;28;20382;-75
2021/07/18 11:33:45;;;;;;;10.98;6.28;;;24.80;81.10;;;;;;5054071;28;20021;-73
2021/07/18 11:36:18;;;;;;;9.85;5.40;;;24.90;81.20;;;;;;5055465;28;20036;-75
2021/07/18 11:38:44;;;;;;;8.13;5.60;;;25.00;80.00;;;;;;5054090;28;20036;-78
2021/07/18 11:41:28;;;;;;;9.73;6.10;;;25.00;80.30;;;;;;5055182;28;20025;-78
2021/07/18 11:43:58;;;;;;;7.22;6.10;;;25.10;79.60;;;;;;5055295;28;20074;-77
2021/07/18 11:46:25;;;;;;;6.03;5.47;;;25.20;80.10;;;;;;5055459;28;20379;-75
2021/07/18 11:48:53;;;;;;;9.30;5.93;;;25.30;80.10;;;;;;5055116;28;20017;-75
2021/07/18 11:51:24;;;;;;;7.18;5.95;;;25.50;80.40;;;;;;5054755;28;20051;-76
2021/07/18 11:53:52;;;;;;;8.43;5.78;;;25.60;79.00;;;;;;5055253;28;20064;-75
2021/07/18 11:56:39;;;;;;;8.02;5.50;;;25.80;78.60;;;;;;5054690;28;20170;-75
2021/07/18 11:59:16;;;;;;;7.18;5.50;;;25.90;77.50;;;;;;5053710;28;20028;-74
2021/07/18 12:01:50;;;;;;;6.70;5.38;;;26.00;76.70;;;;;;5054773;28;20025;-75
2021/07/18 12:04:24;;;;;;;6.47;5.55;;;26.10;76.40;;;;;;5054380;28;20017;-74
2021/07/18 12:06:52;;;;;;;7.05;6.18;;;26.10;75.50;;;;;;5054851;28;20025;-76
2021/07/18 12:09:20;;;;;;;9.65;5.85;;;26.10;73.70;;;;;;5054647;28;20534;-78
2021/07/18 12:11:48;;;;;;;6.60;4.97;;;26.00;70.50;;;;;;5053421;28;20029;-75
2021/07/18 12:14:16;;;;;;;10.40;5.75;;;26.00;71.80;;;;;;5054600;28;20044;-76
2021/07/18 12:16:44;;;;;;;6.93;5.53;;;25.90;70.80;;;;;;5054519;28;20096;-76
2021/07/18 12:19:11;;;;;;;6.90;5.50;;;25.90;72.20;;;;;;5053354;28;20025;-75
2021/07/18 12:21:45;;;;;;;9.82;5.10;;;25.90;72.10;;;;;;5054352;28;20028;-77
2021/07/18 12:24:21;;;;;;;5.22;3.88;;;25.80;71.30;;;;;;5053516;28;20364;-74
2021/07/18 12:26:58;;;;;;;6.60;3.65;;;25.80;71.00;;;;;;5072995;28;20130;-77
2021/07/18 12:29:26;;;;;;;4.25;3.72;;;25.80;72.60;;;;;;5074321;28;20028;-77
2021/07/18 12:31:51;;;;;;;10.00;3.92;;;25.80;72.70;;;;;;5074322;28;20066;-75
2021/07/18 12:34:19;;;;;;;7.13;3.47;;;25.90;73.90;;;;;;5074019;28;20025;-75
2021/07/18 12:36:57;;;;;;;4.07;3.30;;;25.90;72.30;;;;;;5074148;28;20028;-74
2021/07/18 12:39:27;;;;;;;5.80;3.75;;;26.10;72.60;;;;;;5074213;28;20048;-75
2021/07/18 12:41:53;;;;;;;6.30;4.70;;;26.20;71.10;;;;;;5072757;28;20554;-76
2021/07/18 12:44:23;;;;;;;3.70;3.08;;;26.30;70.20;;;;;;5073988;28;20027;-75
2021/07/18 12:47:09;;;;;;;5.15;3.13;;;26.40;70.00;;;;;;5074011;28;20141;-77
2021/07/18 12:49:35;;;;;;;4.63;2.80;;;26.50;68.80;;;;;;5059872;28;20036;-75